Time;durP1;ratioP1;P1;durP2;ratioP2;P2;SDS_P1;SDS_P2;PMS_P1;PMS_P2;Temp;Humidity;BMP_temperature;BMP_pressure;BME280_temperature;BME280_humidity;BME280_pressure;Samples;Min_cycle;Max_cycle;Signal;HPM_P1;HPM_P2
2022/07/21 19:30:03;;;;;;;6.50;3.50;;;;;;;20.84;65.28;100617.72;81875;1370;544874;-73
2022/07/21 19:32:13;;;;;;;5.60;4.20;;;;;;;20.78;65.56;100621.77;84034;1340;22630;-68
2022/07/21 19:34:23;;;;;;;5.20;3.80;;;;;;;20.74;65.95;100621.58;84045;1338;22613;-70
2022/07/21 19:36:52;;;;;;;7.10;3.40;;;;;;;20.70;66.43;100617.38;84080;1342;25443;-68
2022/07/21 19:39:05;;;;;;;12.20;4.40;;;;;;;20.67;66.63;100616.79;84061;1341;22687;-69
2022/07/21 19:41:20;;;;;;;4.30;3.00;;;;;;;20.63;66.46;100614.75;84070;1342;22617;-69
2022/07/21 19:43:32;;;;;;;5.80;3.00;;;;;;;20.62;66.41;100609.50;83856;1340;358739;-70
2022/07/21 19:45:45;;;;;;;4.60;2.90;;;;;;;20.62;66.42;100606.14;84272;1337;22607;-70
2022/07/21 19:47:57;;;;;;;4.50;3.60;;;;;;;20.62;66.65;100608.29;84268;1338;22618;-69
2022/07/21 19:50:25;;;;;;;6.30;3.40;;;;;;;20.59;66.91;100610.47;84312;1339;22626;-69
2022/07/21 19:52:34;;;;;;;6.70;3.40;;;;;;;20.52;67.33;100612.02;84283;1337;22620;-70
2022/07/21 19:54:46;;;;;;;4.80;3.10;;;;;;;20.50;67.55;100610.92;84270;1337;24252;-70
2022/07/21 19:57:04;;;;;;;10.00;3.10;;;;;;;20.50;67.62;100610.61;84293;1338;22613;-70
2022/07/21 19:59:15;;;;;;;5.60;3.30;;;;;;;20.50;67.90;100608.12;84338;1338;22660;-70
2022/07/21 20:01:25;;;;;;;4.90;3.40;;;;;;;20.47;68.00;100608.50;84256;1341;22634;-70
2022/07/21 20:03:35;;;;;;;9.20;3.60;;;;;;;20.42;68.09;100609.21;84247;1337;22637;-69
2022/07/21 20:05:45;;;;;;;5.40;4.20;;;;;;;20.40;68.44;100610.46;84233;1337;24122;-70
2022/07/21 20:07:55;;;;;;;15.20;4.20;;;;;;;20.39;68.83;100607.46;84240;1338;22604;-72
2022/07/21 20:10:07;;;;;;;5.20;3.30;;;;;;;20.37;68.88;100606.21;84562;1333;22725;-67
2022/07/21 20:12:20;;;;;;;7.40;3.20;;;;;;;20.35;68.87;100606.02;84586;1330;22809;-69
2022/07/21 20:14:35;;;;;;;7.50;3.10;;;;;;;20.33;69.44;100601.55;84565;1334;23986;-68
2022/07/21 20:16:47;;;;;;;6.40;3.50;;;;;;;20.32;69.54;100600.41;84707;1326;24258;-69
2022/07/21 20:18:57;;;;;;;5.40;3.60;;;;;;;20.29;69.62;100601.65;84746;1327;24276;-69
2022/07/21 20:21:07;;;;;;;8.10;4.20;;;;;;;20.27;69.70;100599.23;84752;1325;22644;-70
2022/07/21 20:23:23;;;;;;;4.40;3.10;;;;;;;20.23;69.57;100601.95;84746;1326;24025;-70
2022/07/21 20:25:33;;;;;;;8.50;3.00;;;;;;;20.21;69.52;100604.09;84749;1326;23884;-70
2022/07/21 20:27:43;;;;;;;8.50;3.90;;;;;;;20.19;69.63;100602.14;84740;1326;22610;-71
2022/07/21 20:29:53;;;;;;;5.60;3.50;;;;;;;20.15;69.87;100604.37;84757;1326;22672;-71
2022/07/21 20:32:03;;;;;;;7.90;2.90;;;;;;;20.12;69.98;100601.04;84628;1328;22619;-71
2022/07/21 20:34:13;;;;;;;7.60;3.30;;;;;;;20.10;69.82;100604.34;84798;1326;23971;-70
2022/07/21 20:36:22;;;;;;;11.80;5.00;;;;;;;20.08;69.95;100604.65;84692;1329;24186;-69
2022/07/21 20:38:31;;;;;;;5.40;3.60;;;;;;;20.05;69.97;100606.84;84758;1329;22713;-69
2022/07/21 20:40:40;;;;;;;8.10;3.80;;;;;;;20.01;69.88;100608.91;84773;1326;22820;-70
2022/07/21 20:42:51;;;;;;;18.60;5.50;;;;;;;19.97;69.72;100600.33;84748;1327;22871;-70
2022/07/21 20:45:03;;;;;;;7.70;3.40;;;;;;;19.94;69.57;100608.56;84743;1327;22621;-71
2022/07/21 20:47:12;;;;;;;6.00;3.70;;;;;;;19.90;69.35;100608.34;84761;1329;23906;-71
2022/07/21 20:49:22;;;;;;;5.10;4.20;;;;;;;19.88;69.10;100606.33;84802;1331;22610;-70
2022/07/21 20:51:33;;;;;;;7.10;3.90;;;;;;;19.84;68.88;100603.98;84798;1329;22788;-70
2022/07/21 20:53:45;;;;;;;9.90;4.00;;;;;;;19.78;68.86;100601.23;84772;1329;23947;-69
2022/07/21 20:55:54;;;;;;;9.00;4.20;;;;;;;19.73;68.97;100603.33;84754;1321;22593;-71
2022/07/21 20:58:04;;;;;;;10.70;4.90;;;;;;;19.70;68.99;100605.88;84739;1331;22606;-71
2022/07/21 21:00:15;;;;;;;9.60;4.30;;;;;;;19.62;69.25;100599.52;84765;1330;24268;-72
2022/07/21 21:02:24;;;;;;;7.90;4.10;;;;;;;19.55;69.56;100598.90;84735;1324;22603;-69
2022/07/21 21:04:36;;;;;;;6.10;3.70;;;;;;;19.50;69.70;100599.45;84730;1329;22599;-69
2022/07/21 21:06:48;;;;;;;6.90;3.90;;;;;;;19.47;69.83;100601.66;84742;1325;22655;-69
2022/07/21 21:08:57;;;;;;;7.00;3.50;;;;;;;19.45;70.07;100599.52;84725;1330;23812;-71
2022/07/21 21:11:09;;;;;;;5.20;3.50;;;;;;;19.40;70.21;100596.83;84736;1330;22606;-70
2022/07/21 21:13:19;;;;;;;3.90;3.50;;;;;;;19.36;70.33;100596.06;84731;1331;22582;-69
2022/07/21 21:15:30;;;;;;;6.50;3.60;;;;;;;19.33;70.77;100593.09;84720;1329;22586;-70
2022/07/21 21:17:39;;;;;;;3.70;3.40;;;;;;;19.29;70.88;100594.23;84738;1328;24308;-70
2022/07/21 21:19:48;;;;;;;9.50;3.50;;;;;;;19.25;70.94;100592.05;84732;1331;22563;-69
2022/07/21 21:21:57;;;;;;;6.90;4.10;;;;;;;19.21;71.09;100592.52;84713;1325;22564;-71
2022/07/21 21:24:13;;;;;;;6.70;3.60;;;;;;;19.18;71.33;100589.00;84750;1329;22601;-69
2022/07/21 21:26:22;;;;;;;8.40;4.20;;;;;;;19.15;71.46;100591.20;84732;1331;22728;-71
2022/07/21 21:28:32;;;;;;;6.90;4.20;;;;;;;19.12;71.53;100587.53;84726;1329;22664;-72
2022/07/21 21:30:41;;;;;;;5.60;3.20;;;;;;;19.08;71.71;100588.81;84692;1331;22590;-71
2022/07/21 21:32:51;;;;;;;7.80;5.00;;;;;;;19.04;71.70;100590.49;84722;1329;24055;-72
2022/07/21 21:35:00;;;;;;;5.00;3.30;;;;;;;19.02;72.14;100590.33;84756;1330;24463;-72
2022/07/21 21:37:10;;;;;;;5.30;3.80;;;;;;;19.00;72.18;100593.67;84729;1329;22771;-70
2022/07/21 21:39:19;;;;;;;4.40;3.50;;;;;;;18.95;72.24;100590.49;84753;1329;22584;-71
2022/07/21 21:41:30;;;;;;;12.30;4.00;;;;;;;18.91;72.42;100592.15;84771;1330;24139;-72
2022/07/21 21:43:39;;;;;;;9.90;3.60;;;;;;;18.89;72.62;100588.05;84816;1324;22589;-72
2022/07/21 21:45:49;;;;;;;10.20;4.00;;;;;;;18.85;72.88;100589.02;84758;1329;24102;-72
2022/07/21 21:47:58;;;;;;;7.10;3.80;;;;;;;18.82;73.15;100586.81;84816;1327;22852;-70
2022/07/21 21:50:09;;;;;;;5.00;4.10;;;;;;;18.77;73.40;100586.75;84777;1328;22694;-73
2022/07/21 21:52:18;;;;;;;8.10;3.90;;;;;;;18.74;73.55;100588.70;84778;1329;22612;-72
2022/07/21 21:54:27;;;;;;;5.10;4.60;;;;;;;18.74;73.64;100587.52;84767;1327;24108;-72
2022/07/21 21:56:37;;;;;;;7.60;4.30;;;;;;;18.71;73.85;100588.57;84752;1329;22601;-72
2022/07/21 21:58:47;;;;;;;8.40;4.20;;;;;;;18.70;73.94;100587.59;84778;1326;22730;-72
2022/07/21 22:00:56;;;;;;;13.40;4.80;;;;;;;18.68;74.02;100590.88;84719;1327;25392;-70
2022/07/21 22:03:06;;;;;;;10.10;4.10;;;;;;;18.67;74.26;100592.55;84732;1329;23167;-72
2022/07/21 22:05:18;;;;;;;12.80;5.80;;;;;;;18.65;74.25;100591.77;84724;1328;23885;-69
2022/07/21 22:07:28;;;;;;;8.00;3.90;;;;;;;18.62;74.40;100592.14;84728;1328;22620;-70
2022/07/21 22:09:37;;;;;;;5.50;4.00;;;;;;;18.60;74.66;100588.45;84725;1324;24211;-72
2022/07/21 22:11:46;;;;;;;8.40;4.00;;;;;;;18.57;74.79;100588.98;84721;1330;22558;-70
2022/07/21 22:13:55;;;;;;;10.20;3.90;;;;;;;18.54;74.81;100587.25;84732;1329;24244;-70
2022/07/21 22:16:04;;;;;;;8.20;3.90;;;;;;;18.51;75.14;100583.23;84702;1328;25280;-70
2022/07/21 22:18:13;;;;;;;7.90;4.30;;;;;;;18.49;75.27;100587.23;84713;1329;22704;-70
2022/07/21 22:20:23;;;;;;;9.20;4.50;;;;;;;18.47;75.49;100581.85;84743;1329;24400;-71
2022/07/21 22:22:32;;;;;;;9.60;4.30;;;;;;;18.48;75.68;100584.80;84757;1329;22587;-71
2022/07/21 22:24:41;;;;;;;9.80;4.30;;;;;;;18.50;75.69;100584.13;84751;1330;22590;-70
2022/07/21 22:26:50;;;;;;;6.30;4.10;;;;;;;18.49;75.62;100582.11;84740;1329;27163;-72
2022/07/21 22:28:59;;;;;;;9.40;4.90;;;;;;;18.46;75.66;100583.02;84732;1324;22877;-70
2022/07/21 22:31:08;;;;;;;6.50;4.20;;;;;;;18.44;75.64;100582.29;84737;1330;22737;-70
2022/07/21 22:33:19;;;;;;;4.60;4.10;;;;;;;18.42;75.71;100580.80;84713;1330;22667;-72
2022/07/21 22:35:28;;;;;;;13.60;4.50;;;;;;;18.41;75.83;100580.89;84689;1331;22628;-70
2022/07/21 22:37:37;;;;;;;5.30;4.30;;;;;;;18.39;75.86;100583.27;84734;1329;22591;-69
2022/07/21 22:39:45;;;;;;;6.70;4.00;;;;;;;18.39;75.98;100581.02;84720;1328;22587;-71
2022/07/21 22:41:54;;;;;;;4.20;3.80;;;;;;;18.37;75.99;100580.79;84744;1329;25730;-69
2022/07/21 22:44:03;;;;;;;6.80;4.00;;;;;;;18.35;75.97;100579.50;84778;1330;23986;-72
2022/07/21 22:46:12;;;;;;;4.90;4.00;;;;;;;18.36;75.91;100579.97;84739;1328;22876;-71
2022/07/21 22:48:21;;;;;;;10.20;4.40;;;;;;;18.39;75.81;100584.59;84691;1331;22682;-70
2022/07/21 22:50:30;;;;;;;4.60;3.90;;;;;;;18.39;75.73;100584.19;84725;1329;22608;-71
2022/07/21 22:52:40;;;;;;;6.10;4.50;;;;;;;18.40;75.77;100581.83;84713;1331;24070;-73
2022/07/21 22:54:49;;;;;;;10.00;4.50;;;;;;;18.41;75.90;100583.35;84739;1326;22592;-73
2022/07/21 22:56:58;;;;;;;7.10;4.60;;;;;;;18.42;75.98;100588.61;84706;1329;22615;-72
2022/07/21 22:59:06;;;;;;;6.20;4.70;;;;;;;18.42;75.98;100585.92;84714;1325;22692;-70
2022/07/21 23:01:18;;;;;;;7.10;4.90;;;;;;;18.42;75.96;100587.90;84722;1328;24010;-71
2022/07/21 23:03:27;;;;;;;11.30;4.50;;;;;;;18.41;75.93;100586.71;84682;1328;24288;-70
2022/07/21 23:05:37;;;;;;;9.50;4.50;;;;;;;18.40;75.83;100587.27;84717;1320;22754;-69
2022/07/21 23:07:45;;;;;;;5.30;4.80;;;;;;;18.39;75.96;100585.81;84726;1327;22686;-69
2022/07/21 23:09:55;;;;;;;4.80;3.60;;;;;;;18.37;75.98;100588.90;84723;1329;22616;-72
2022/07/21 23:12:07;;;;;;;6.40;4.40;;;;;;;18.37;75.99;100588.56;84694;1326;25360;-73
2022/07/21 23:14:16;;;;;;;5.80;5.10;;;;;;;18.37;75.98;100591.04;84710;1329;25282;-71
2022/07/21 23:16:25;;;;;;;5.20;4.20;;;;;;;18.34;75.94;100585.91;84674;1329;24158;-70
2022/07/21 23:18:34;;;;;;;8.50;4.40;;;;;;;18.32;76.10;100581.81;84745;1329;22694;-71
2022/07/21 23:20:43;;;;;;;4.60;4.20;;;;;;;18.31;76.16;100578.52;84711;1327;22568;-70
2022/07/21 23:22:52;;;;;;;6.90;4.70;;;;;;;18.30;76.08;100578.05;84704;1327;22654;-72
2022/07/21 23:25:01;;;;;;;5.00;4.40;;;;;;;18.28;76.18;100575.41;84737;1328;22619;-72
2022/07/21 23:27:10;;;;;;;7.30;4.80;;;;;;;18.25;76.28;100580.71;84685;1329;24343;-72
2022/07/21 23:29:19;;;;;;;5.80;4.30;;;;;;;18.23;76.42;100579.27;84707;1329;22876;-71
2022/07/21 23:31:28;;;;;;;8.60;4.60;;;;;;;18.22;76.32;100578.81;84729;1329;22587;-71
2022/07/21 23:33:36;;;;;;;8.20;4.50;;;;;;;18.21;76.50;100574.95;84717;1331;22594;-69
2022/07/21 23:35:45;;;;;;;9.70;3.80;;;;;;;18.21;76.54;100574.44;84705;1327;22857;-70
2022/07/21 23:37:54;;;;;;;7.20;4.50;;;;;;;18.24;76.38;100572.49;84695;1328;22630;-70
2022/07/21 23:40:03;;;;;;;8.90;5.00;;;;;;;18.31;76.28;100574.33;84714;1330;22695;-73
2022/07/21 23:42:12;;;;;;;6.30;5.10;;;;;;;18.40;76.07;100574.75;84702;1326;23928;-72
2022/07/21 23:44:20;;;;;;;6.60;4.10;;;;;;;18.47;75.72;100573.55;84716;1329;22823;-70
2022/07/21 23:46:29;;;;;;;8.00;4.70;;;;;;;18.54;75.39;100577.68;84688;1329;22619;-72
2022/07/21 23:48:38;;;;;;;9.00;4.90;;;;;;;18.61;75.21;100574.80;84721;1329;22887;-70
2022/07/21 23:50:47;;;;;;;7.90;5.10;;;;;;;18.66;75.07;100576.22;84694;1329;22616;-71
2022/07/21 23:52:56;;;;;;;8.50;4.30;;;;;;;18.70;74.86;100568.14;84695;1328;25441;-70
2022/07/21 23:55:05;;;;;;;7.10;4.70;;;;;;;18.74;74.72;100566.11;84708;1325;24442;-72
2022/07/21 23:57:14;;;;;;;6.20;4.90;;;;;;;18.77;74.60;100565.54;84670;1329;22600;-70
2022/07/21 23:59:22;;;;;;;7.80;4.30;;;;;;;18.81;74.35;100564.20;84741;1329;24195;-70
